sensor_id;sensor_type;location;lat;lon;timestamp;P1;durP1;ratioP1;P2;durP2;ratioP2
62709;SDS011;48770;51.624;5.886;2023-04-10T00:00:01;1.88;;;1.77;;
62709;SDS011;48770;51.624;5.886;2023-04-10T00:02:27;1.48;;;1.38;;
62709;SDS011;48770;51.624;5.886;2023-04-10T00:04:53;1.83;;;1.50;;
62709;SDS011;48770;51.624;5.886;2023-04-10T00:07:18;1.98;;;1.73;;
62709;SDS011;48770;51.624;5.886;2023-04-10T00:09:43;1.52;;;1.42;;
62709;SDS011;48770;51.624;5.886;2023-04-10T00:12:10;2.35;;;1.95;;
62709;SDS011;48770;51.624;5.886;2023-04-10T00:14:36;1.55;;;1.45;;
62709;SDS011;48770;51.624;5.886;2023-04-10T00:17:01;1.70;;;1.40;;
62709;SDS011;48770;51.624;5.886;2023-04-10T00:19:27;1.60;;;1.50;;
62709;SDS011;48770;51.624;5.886;2023-04-10T00:21:52;1.75;;;1.60;;
62709;SDS011;48770;51.624;5.886;2023-04-10T00:24:17;2.30;;;1.63;;
62709;SDS011;48770;51.624;5.886;2023-04-10T00:26:43;1.60;;;1.50;;
62709;SDS011;48770;51.624;5.886;2023-04-10T00:29:08;1.70;;;1.40;;
62709;SDS011;48770;51.624;5.886;2023-04-10T00:31:33;2.75;;;1.55;;
62709;SDS011;48770;51.624;5.886;2023-04-10T00:33:58;1.98;;;1.77;;
62709;SDS011;48770;51.624;5.886;2023-04-10T00:36:24;3.13;;;1.77;;
62709;SDS011;48770;51.624;5.886;2023-04-10T00:38:50;2.00;;;1.80;;
62709;SDS011;48770;51.624;5.886;2023-04-10T00:41:16;2.03;;;1.60;;
62709;SDS011;48770;51.624;5.886;2023-04-10T00:43:41;1.65;;;1.52;;
62709;SDS011;48770;51.624;5.886;2023-04-10T00:46:07;1.55;;;1.45;;
62709;SDS011;48770;51.624;5.886;2023-04-10T00:48:33;2.33;;;1.52;;
62709;SDS011;48770;51.624;5.886;2023-04-10T00:50:59;2.00;;;1.80;;
62709;SDS011;48770;51.624;5.886;2023-04-10T00:53:25;2.70;;;1.77;;
62709;SDS011;48770;51.624;5.886;2023-04-10T00:55:50;1.83;;;1.67;;
62709;SDS011;48770;51.624;5.886;2023-04-10T00:58:16;2.03;;;1.40;;
62709;SDS011;48770;51.624;5.886;2023-04-10T01:00:42;1.55;;;1.45;;
62709;SDS011;48770;51.624;5.886;2023-04-10T01:03:07;2.30;;;1.50;;
62709;SDS011;48770;51.624;5.886;2023-04-10T01:14:22;2.10;;;1.90;;
62709;SDS011;48770;51.624;5.886;2023-04-10T01:16:56;1.90;;;1.70;;
62709;SDS011;48770;51.624;5.886;2023-04-10T01:19:35;2.13;;;1.60;;
62709;SDS011;48770;51.624;5.886;2023-04-10T01:22:05;1.38;;;1.27;;
62709;SDS011;48770;51.624;5.886;2023-04-10T01:24:49;1.42;;;1.33;;
62709;SDS011;48770;51.624;5.886;2023-04-10T01:27:35;2.25;;;1.60;;
62709;SDS011;48770;51.624;5.886;2023-04-10T01:30:08;2.20;;;1.67;;
62709;SDS011;48770;51.624;5.886;2023-04-10T01:32:37;1.55;;;1.45;;
62709;SDS011;48770;51.624;5.886;2023-04-10T01:35:05;2.25;;;1.48;;
62709;SDS011;48770;51.624;5.886;2023-04-10T01:37:33;1.70;;;1.58;;
62709;SDS011;48770;51.624;5.886;2023-04-10T01:40:03;2.42;;;1.58;;
62709;SDS011;48770;51.624;5.886;2023-04-10T01:42:42;1.60;;;1.50;;
62709;SDS011;48770;51.624;5.886;2023-04-10T01:45:12;1.63;;;1.52;;
62709;SDS011;48770;51.624;5.886;2023-04-10T01:47:42;1.75;;;1.58;;
62709;SDS011;48770;51.624;5.886;2023-04-10T01:50:07;1.67;;;1.40;;
62709;SDS011;48770;51.624;5.886;2023-04-10T01:52:35;1.67;;;1.58;;
62709;SDS011;48770;51.624;5.886;2023-04-10T01:55:01;1.73;;;1.52;;
62709;SDS011;48770;51.624;5.886;2023-04-10T01:57:28;2.05;;;1.80;;
62709;SDS011;48770;51.624;5.886;2023-04-10T01:59:55;1.40;;;1.30;;
62709;SDS011;48770;51.624;5.886;2023-04-10T02:02:21;1.50;;;1.40;;
62709;SDS011;48770;51.624;5.886;2023-04-10T02:04:47;1.75;;;1.63;;
62709;SDS011;48770;51.624;5.886;2023-04-10T02:07:19;1.70;;;1.60;;
62709;SDS011;48770;51.624;5.886;2023-04-10T02:09:55;2.05;;;1.40;;
62709;SDS011;48770;51.624;5.886;2023-04-10T02:12:31;1.73;;;1.50;;
62709;SDS011;48770;51.624;5.886;2023-04-10T02:15:00;1.50;;;1.40;;
62709;SDS011;48770;51.624;5.886;2023-04-10T02:17:29;1.90;;;1.80;;
62709;SDS011;48770;51.624;5.886;2023-04-10T02:19:56;1.98;;;1.40;;
62709;SDS011;48770;51.624;5.886;2023-04-10T02:22:22;1.45;;;1.35;;
62709;SDS011;48770;51.624;5.886;2023-04-10T02:24:50;1.70;;;1.60;;
62709;SDS011;48770;51.624;5.886;2023-04-10T02:27:25;1.50;;;1.40;;
62709;SDS011;48770;51.624;5.886;2023-04-10T02:29:58;2.08;;;1.60;;
62709;SDS011;48770;51.624;5.886;2023-04-10T02:32:24;2.30;;;1.60;;
62709;SDS011;48770;51.624;5.886;2023-04-10T02:34:49;1.70;;;1.60;;
62709;SDS011;48770;51.624;5.886;2023-04-10T02:37:15;1.60;;;1.50;;
62709;SDS011;48770;51.624;5.886;2023-04-10T02:39:40;1.30;;;1.20;;
62709;SDS011;48770;51.624;5.886;2023-04-10T02:42:06;1.60;;;1.50;;
62709;SDS011;48770;51.624;5.886;2023-04-10T02:44:31;2.10;;;1.50;;
62709;SDS011;48770;51.624;5.886;2023-04-10T02:46:56;1.50;;;1.40;;
62709;SDS011;48770;51.624;5.886;2023-04-10T02:49:22;1.40;;;1.30;;
62709;SDS011;48770;51.624;5.886;2023-04-10T02:51:47;2.05;;;1.52;;
62709;SDS011;48770;51.624;5.886;2023-04-10T02:54:12;1.38;;;1.27;;
62709;SDS011;48770;51.624;5.886;2023-04-10T02:56:37;1.38;;;1.27;;
62709;SDS011;48770;51.624;5.886;2023-04-10T02:59:03;1.63;;;1.40;;
62709;SDS011;48770;51.624;5.886;2023-04-10T03:01:28;1.85;;;1.60;;
62709;SDS011;48770;51.624;5.886;2023-04-10T03:03:54;1.58;;;1.48;;
62709;SDS011;48770;51.624;5.886;2023-04-10T03:06:19;1.60;;;1.50;;
62709;SDS011;48770;51.624;5.886;2023-04-10T03:08:45;1.80;;;1.70;;
62709;SDS011;48770;51.624;5.886;2023-04-10T03:11:11;1.70;;;1.60;;
62709;SDS011;48770;51.624;5.886;2023-04-10T03:13:36;2.00;;;1.70;;
62709;SDS011;48770;51.624;5.886;2023-04-10T03:16:01;5.00;;;1.80;;
62709;SDS011;48770;51.624;5.886;2023-04-10T03:18:27;1.50;;;1.40;;
62709;SDS011;48770;51.624;5.886;2023-04-10T03:20:53;1.60;;;1.50;;
62709;SDS011;48770;51.624;5.886;2023-04-10T03:23:19;1.88;;;1.45;;
62709;SDS011;48770;51.624;5.886;2023-04-10T03:25:48;1.90;;;1.70;;
62709;SDS011;48770;51.624;5.886;2023-04-10T03:28:15;2.22;;;1.83;;
62709;SDS011;48770;51.624;5.886;2023-04-10T03:30:40;1.77;;;1.67;;
62709;SDS011;48770;51.624;5.886;2023-04-10T03:33:05;2.17;;;1.52;;
62709;SDS011;48770;51.624;5.886;2023-04-10T03:35:31;2.53;;;1.50;;
62709;SDS011;48770;51.624;5.886;2023-04-10T03:37:56;1.98;;;1.80;;
62709;SDS011;48770;51.624;5.886;2023-04-10T03:40:21;2.17;;;1.45;;
62709;SDS011;48770;51.624;5.886;2023-04-10T03:42:47;1.55;;;1.45;;
62709;SDS011;48770;51.624;5.886;2023-04-10T03:45:13;1.42;;;1.33;;
62709;SDS011;48770;51.624;5.886;2023-04-10T03:47:38;1.63;;;1.50;;
62709;SDS011;48770;51.624;5.886;2023-04-10T03:50:04;1.48;;;1.38;;
62709;SDS011;48770;51.624;5.886;2023-04-10T03:52:30;1.67;;;1.58;;
62709;SDS011;48770;51.624;5.886;2023-04-10T03:54:55;1.90;;;1.70;;
62709;SDS011;48770;51.624;5.886;2023-04-10T03:57:21;1.67;;;1.58;;
62709;SDS011;48770;51.624;5.886;2023-04-10T03:59:46;1.83;;;1.73;;
62709;SDS011;48770;51.624;5.886;2023-04-10T04:02:12;1.50;;;1.40;;
62709;SDS011;48770;51.624;5.886;2023-04-10T04:04:38;1.95;;;1.38;;
62709;SDS011;48770;51.624;5.886;2023-04-10T04:07:04;1.40;;;1.30;;
62709;SDS011;48770;51.624;5.886;2023-04-10T04:09:29;1.73;;;1.63;;
62709;SDS011;48770;51.624;5.886;2023-04-10T04:11:55;2.22;;;1.58;;
62709;SDS011;48770;51.624;5.886;2023-04-10T04:14:20;1.30;;;1.20;;
62709;SDS011;48770;51.624;5.886;2023-04-10T04:16:46;1.40;;;1.30;;
62709;SDS011;48770;51.624;5.886;2023-04-10T04:19:12;1.70;;;1.52;;
62709;SDS011;48770;51.624;5.886;2023-04-10T04:21:37;1.53;;;1.43;;
62709;SDS011;48770;51.624;5.886;2023-04-10T04:24:02;1.42;;;1.25;;
62709;SDS011;48770;51.624;5.886;2023-04-10T04:26:27;1.50;;;1.20;;
62709;SDS011;48770;51.624;5.886;2023-04-10T04:28:53;1.93;;;1.73;;
62709;SDS011;48770;51.624;5.886;2023-04-10T04:31:18;1.60;;;1.50;;
62709;SDS011;48770;51.624;5.886;2023-04-10T04:33:43;1.67;;;1.40;;
62709;SDS011;48770;51.624;5.886;2023-04-10T04:36:08;1.30;;;1.20;;
62709;SDS011;48770;51.624;5.886;2023-04-10T04:38:34;1.98;;;1.40;;
62709;SDS011;48770;51.624;5.886;2023-04-10T04:40:59;1.40;;;1.30;;
62709;SDS011;48770;51.624;5.886;2023-04-10T04:43:25;1.30;;;1.20;;
62709;SDS011;48770;51.624;5.886;2023-04-10T04:45:50;1.75;;;1.65;;
62709;SDS011;48770;51.624;5.886;2023-04-10T04:48:15;1.17;;;1.08;;
62709;SDS011;48770;51.624;5.886;2023-04-10T04:50:41;2.25;;;1.60;;
62709;SDS011;48770;51.624;5.886;2023-04-10T04:53:06;2.90;;;1.40;;
62709;SDS011;48770;51.624;5.886;2023-04-10T04:55:32;1.50;;;1.23;;
62709;SDS011;48770;51.624;5.886;2023-04-10T04:57:58;1.38;;;1.27;;
62709;SDS011;48770;51.624;5.886;2023-04-10T05:00:23;1.23;;;1.13;;
62709;SDS011;48770;51.624;5.886;2023-04-10T05:02:48;1.42;;;1.30;;
62709;SDS011;48770;51.624;5.886;2023-04-10T05:05:14;1.30;;;1.20;;
62709;SDS011;48770;51.624;5.886;2023-04-10T05:07:39;2.83;;;1.48;;
62709;SDS011;48770;51.624;5.886;2023-04-10T05:10:05;1.83;;;1.70;;
62709;SDS011;48770;51.624;5.886;2023-04-10T05:12:31;1.70;;;1.48;;
62709;SDS011;48770;51.624;5.886;2023-04-10T05:14:56;1.38;;;1.27;;
62709;SDS011;48770;51.624;5.886;2023-04-10T05:17:21;2.27;;;1.20;;
62709;SDS011;48770;51.624;5.886;2023-04-10T05:19:46;1.52;;;1.20;;
62709;SDS011;48770;51.624;5.886;2023-04-10T05:22:12;2.57;;;1.43;;
62709;SDS011;48770;51.624;5.886;2023-04-10T05:24:37;1.50;;;1.40;;
62709;SDS011;48770;51.624;5.886;2023-04-10T05:27:02;1.47;;;1.37;;
62709;SDS011;48770;51.624;5.886;2023-04-10T05:29:27;2.05;;;1.27;;
62709;SDS011;48770;51.624;5.886;2023-04-10T05:31:53;1.42;;;1.33;;
62709;SDS011;48770;51.624;5.886;2023-04-10T05:34:18;1.65;;;1.48;;
62709;SDS011;48770;51.624;5.886;2023-04-10T05:36:43;1.45;;;1.35;;
62709;SDS011;48770;51.624;5.886;2023-04-10T05:39:09;1.33;;;1.23;;
62709;SDS011;48770;51.624;5.886;2023-04-10T05:41:34;1.73;;;1.50;;
62709;SDS011;48770;51.624;5.886;2023-04-10T05:44:00;1.85;;;1.40;;
62709;SDS011;48770;51.624;5.886;2023-04-10T05:46:25;1.65;;;1.20;;
62709;SDS011;48770;51.624;5.886;2023-04-10T05:48:51;1.67;;;1.42;;
62709;SDS011;48770;51.624;5.886;2023-04-10T05:51:16;1.50;;;1.40;;
62709;SDS011;48770;51.624;5.886;2023-04-10T05:53:42;1.45;;;1.35;;
62709;SDS011;48770;51.624;5.886;2023-04-10T05:56:07;1.52;;;1.42;;
62709;SDS011;48770;51.624;5.886;2023-04-10T05:58:32;1.40;;;1.20;;
62709;SDS011;48770;51.624;5.886;2023-04-10T06:00:58;2.05;;;1.45;;
62709;SDS011;48770;51.624;5.886;2023-04-10T06:03:23;2.10;;;1.40;;
62709;SDS011;48770;51.624;5.886;2023-04-10T06:05:51;1.65;;;1.35;;
62709;SDS011;48770;51.624;5.886;2023-04-10T06:08:16;1.35;;;1.15;;
62709;SDS011;48770;51.624;5.886;2023-04-10T06:10:43;2.22;;;1.58;;
62709;SDS011;48770;51.624;5.886;2023-04-10T06:13:10;1.25;;;1.15;;
62709;SDS011;48770;51.624;5.886;2023-04-10T06:15:35;2.33;;;1.63;;
62709;SDS011;48770;51.624;5.886;2023-04-10T06:18:00;1.40;;;1.30;;
62709;SDS011;48770;51.624;5.886;2023-04-10T06:20:25;1.60;;;1.30;;
62709;SDS011;48770;51.624;5.886;2023-04-10T06:22:51;1.40;;;1.30;;
62709;SDS011;48770;51.624;5.886;2023-04-10T06:25:16;1.80;;;1.40;;
62709;SDS011;48770;51.624;5.886;2023-04-10T06:27:41;1.70;;;1.55;;
62709;SDS011;48770;51.624;5.886;2023-04-10T06:30:07;1.73;;;1.30;;
62709;SDS011;48770;51.624;5.886;2023-04-10T06:32:33;2.75;;;1.40;;
62709;SDS011;48770;51.624;5.886;2023-04-10T06:34:58;8.18;;;1.50;;
62709;SDS011;48770;51.624;5.886;2023-04-10T06:37:27;2.13;;;1.37;;
62709;SDS011;48770;51.624;5.886;2023-04-10T06:40:08;1.27;;;1.10;;
62709;SDS011;48770;51.624;5.886;2023-04-10T06:42:35;3.20;;;1.17;;
62709;SDS011;48770;51.624;5.886;2023-04-10T06:45:01;1.52;;;1.23;;
62709;SDS011;48770;51.624;5.886;2023-04-10T06:47:27;3.08;;;1.20;;
62709;SDS011;48770;51.624;5.886;2023-04-10T06:49:53;4.05;;;1.65;;
62709;SDS011;48770;51.624;5.886;2023-04-10T06:52:18;3.45;;;1.20;;
62709;SDS011;48770;51.624;5.886;2023-04-10T06:54:44;2.63;;;1.30;;
62709;SDS011;48770;51.624;5.886;2023-04-10T06:57:09;2.30;;;1.27;;
62709;SDS011;48770;51.624;5.886;2023-04-10T06:59:35;2.58;;;1.20;;
62709;SDS011;48770;51.624;5.886;2023-04-10T07:02:01;1.40;;;1.13;;
62709;SDS011;48770;51.624;5.886;2023-04-10T07:04:27;3.53;;;1.10;;
62709;SDS011;48770;51.624;5.886;2023-04-10T07:06:53;2.15;;;1.30;;
62709;SDS011;48770;51.624;5.886;2023-04-10T07:09:18;2.30;;;1.33;;
62709;SDS011;48770;51.624;5.886;2023-04-10T07:11:44;4.97;;;2.20;;
62709;SDS011;48770;51.624;5.886;2023-04-10T07:14:09;4.57;;;2.25;;
62709;SDS011;48770;51.624;5.886;2023-04-10T07:16:35;10.57;;;1.45;;
62709;SDS011;48770;51.624;5.886;2023-04-10T07:19:01;2.00;;;1.50;;
62709;SDS011;48770;51.624;5.886;2023-04-10T07:21:26;4.03;;;1.50;;
62709;SDS011;48770;51.624;5.886;2023-04-10T07:23:52;2.72;;;1.50;;
62709;SDS011;48770;51.624;5.886;2023-04-10T07:26:17;3.20;;;1.65;;
62709;SDS011;48770;51.624;5.886;2023-04-10T07:28:42;5.10;;;1.50;;
62709;SDS011;48770;51.624;5.886;2023-04-10T07:31:08;3.58;;;1.67;;
62709;SDS011;48770;51.624;5.886;2023-04-10T07:33:35;2.75;;;1.65;;
62709;SDS011;48770;51.624;5.886;2023-04-10T07:36:00;5.78;;;2.00;;
62709;SDS011;48770;51.624;5.886;2023-04-10T07:38:27;2.90;;;1.98;;
62709;SDS011;48770;51.624;5.886;2023-04-10T07:40:56;4.05;;;2.25;;
62709;SDS011;48770;51.624;5.886;2023-04-10T07:43:24;3.72;;;2.22;;
62709;SDS011;48770;51.624;5.886;2023-04-10T07:45:50;3.10;;;2.13;;
62709;SDS011;48770;51.624;5.886;2023-04-10T07:48:15;4.82;;;2.28;;
62709;SDS011;48770;51.624;5.886;2023-04-10T07:50:41;2.85;;;2.15;;
62709;SDS011;48770;51.624;5.886;2023-04-10T07:53:06;2.83;;;2.25;;
62709;SDS011;48770;51.624;5.886;2023-04-10T07:56:04;5.47;;;2.50;;
62709;SDS011;48770;51.624;5.886;2023-04-10T07:58:23;3.88;;;2.75;;
62709;SDS011;48770;51.624;5.886;2023-04-10T08:00:48;3.90;;;2.30;;
62709;SDS011;48770;51.624;5.886;2023-04-10T08:03:14;2.20;;;2.00;;
62709;SDS011;48770;51.624;5.886;2023-04-10T08:05:39;3.60;;;2.60;;
62709;SDS011;48770;51.624;5.886;2023-04-10T08:08:04;3.90;;;2.53;;
62709;SDS011;48770;51.624;5.886;2023-04-10T08:10:35;4.00;;;2.67;;
62709;SDS011;48770;51.624;5.886;2023-04-10T08:13:01;3.33;;;2.75;;
62709;SDS011;48770;51.624;5.886;2023-04-10T08:15:27;6.93;;;3.00;;
62709;SDS011;48770;51.624;5.886;2023-04-10T08:17:52;3.55;;;2.80;;
62709;SDS011;48770;51.624;5.886;2023-04-10T08:20:18;3.03;;;2.45;;
62709;SDS011;48770;51.624;5.886;2023-04-10T08:22:43;3.08;;;2.80;;
62709;SDS011;48770;51.624;5.886;2023-04-10T08:25:08;2.78;;;2.53;;
62709;SDS011;48770;51.624;5.886;2023-04-10T08:27:34;3.42;;;2.67;;
62709;SDS011;48770;51.624;5.886;2023-04-10T08:29:59;2.92;;;2.35;;
62709;SDS011;48770;51.624;5.886;2023-04-10T08:32:24;6.22;;;2.50;;
62709;SDS011;48770;51.624;5.886;2023-04-10T08:34:50;2.92;;;2.38;;
62709;SDS011;48770;51.624;5.886;2023-04-10T08:37:16;2.75;;;2.10;;
62709;SDS011;48770;51.624;5.886;2023-04-10T08:39:43;3.15;;;2.35;;
62709;SDS011;48770;51.624;5.886;2023-04-10T08:42:08;5.63;;;2.50;;
62709;SDS011;48770;51.624;5.886;2023-04-10T08:44:34;2.97;;;2.08;;
62709;SDS011;48770;51.624;5.886;2023-04-10T08:47:01;2.70;;;2.45;;
62709;SDS011;48770;51.624;5.886;2023-04-10T08:52:14;2.47;;;2.00;;
62709;SDS011;48770;51.624;5.886;2023-04-10T08:54:46;3.17;;;2.08;;
62709;SDS011;48770;51.624;5.886;2023-04-10T08:57:14;4.18;;;2.20;;
62709;SDS011;48770;51.624;5.886;2023-04-10T08:59:44;2.65;;;2.13;;
62709;SDS011;48770;51.624;5.886;2023-04-10T09:02:10;4.25;;;2.17;;
62709;SDS011;48770;51.624;5.886;2023-04-10T09:04:36;2.88;;;2.00;;
62709;SDS011;48770;51.624;5.886;2023-04-10T09:07:01;2.38;;;2.03;;
62709;SDS011;48770;51.624;5.886;2023-04-10T09:09:26;2.35;;;1.98;;
62709;SDS011;48770;51.624;5.886;2023-04-10T09:11:56;2.97;;;2.35;;
62709;SDS011;48770;51.624;5.886;2023-04-10T09:14:27;2.92;;;2.20;;
62709;SDS011;48770;51.624;5.886;2023-04-10T09:17:09;3.38;;;2.45;;
62709;SDS011;48770;51.624;5.886;2023-04-10T09:19:39;4.13;;;2.00;;
62709;SDS011;48770;51.624;5.886;2023-04-10T09:22:05;3.03;;;2.40;;
62709;SDS011;48770;51.624;5.886;2023-04-10T09:24:34;3.00;;;2.00;;
62709;SDS011;48770;51.624;5.886;2023-04-10T09:27:01;5.97;;;2.20;;
62709;SDS011;48770;51.624;5.886;2023-04-10T09:29:26;2.58;;;2.30;;
62709;SDS011;48770;51.624;5.886;2023-04-10T09:32:08;2.33;;;2.13;;
62709;SDS011;48770;51.624;5.886;2023-04-10T09:34:34;4.50;;;2.40;;
62709;SDS011;48770;51.624;5.886;2023-04-10T09:36:59;3.75;;;2.25;;
62709;SDS011;48770;51.624;5.886;2023-04-10T09:39:32;4.20;;;2.85;;
62709;SDS011;48770;51.624;5.886;2023-04-10T09:41:58;4.55;;;2.72;;
62709;SDS011;48770;51.624;5.886;2023-04-10T09:44:27;4.25;;;2.47;;
62709;SDS011;48770;51.624;5.886;2023-04-10T09:46:57;2.55;;;2.30;;
62709;SDS011;48770;51.624;5.886;2023-04-10T09:49:23;4.35;;;2.05;;
62709;SDS011;48770;51.624;5.886;2023-04-10T09:51:48;5.70;;;2.20;;
62709;SDS011;48770;51.624;5.886;2023-04-10T09:54:14;3.90;;;2.45;;
62709;SDS011;48770;51.624;5.886;2023-04-10T09:56:40;2.45;;;2.10;;
62709;SDS011;48770;51.624;5.886;2023-04-10T09:59:09;3.30;;;2.40;;
62709;SDS011;48770;51.624;5.886;2023-04-10T10:01:35;3.28;;;2.10;;
62709;SDS011;48770;51.624;5.886;2023-04-10T10:04:03;2.92;;;2.40;;
62709;SDS011;48770;51.624;5.886;2023-04-10T10:06:29;2.85;;;2.28;;
62709;SDS011;48770;51.624;5.886;2023-04-10T10:08:57;3.15;;;2.47;;
62709;SDS011;48770;51.624;5.886;2023-04-10T10:11:26;3.00;;;2.30;;
62709;SDS011;48770;51.624;5.886;2023-04-10T10:13:53;2.60;;;2.40;;
62709;SDS011;48770;51.624;5.886;2023-04-10T10:16:24;3.05;;;2.50;;
62709;SDS011;48770;51.624;5.886;2023-04-10T10:19:15;2.65;;;2.03;;
62709;SDS011;48770;51.624;5.886;2023-04-10T10:21:48;2.53;;;2.33;;
62709;SDS011;48770;51.624;5.886;2023-04-10T10:24:13;3.78;;;2.40;;
62709;SDS011;48770;51.624;5.886;2023-04-10T10:26:40;4.80;;;2.38;;
62709;SDS011;48770;51.624;5.886;2023-04-10T10:29:07;4.07;;;2.30;;
62709;SDS011;48770;51.624;5.886;2023-04-10T10:31:37;2.40;;;2.20;;
62709;SDS011;48770;51.624;5.886;2023-04-10T10:34:04;2.67;;;2.38;;
62709;SDS011;48770;51.624;5.886;2023-04-10T10:36:33;3.42;;;2.20;;
62709;SDS011;48770;51.624;5.886;2023-04-10T10:39:17;3.47;;;2.42;;
62709;SDS011;48770;51.624;5.886;2023-04-10T10:41:59;4.25;;;2.40;;
62709;SDS011;48770;51.624;5.886;2023-04-10T10:44:46;4.35;;;2.38;;
62709;SDS011;48770;51.624;5.886;2023-04-10T10:49:53;2.72;;;2.50;;
62709;SDS011;48770;51.624;5.886;2023-04-10T10:52:54;2.47;;;2.20;;
62709;SDS011;48770;51.624;5.886;2023-04-10T10:57:47;4.77;;;2.20;;
62709;SDS011;48770;51.624;5.886;2023-04-10T11:00:14;4.20;;;2.92;;
62709;SDS011;48770;51.624;5.886;2023-04-10T11:02:40;3.67;;;2.25;;
62709;SDS011;48770;51.624;5.886;2023-04-10T11:05:05;4.35;;;2.40;;
62709;SDS011;48770;51.624;5.886;2023-04-10T11:13:30;2.28;;;2.03;;
62709;SDS011;48770;51.624;5.886;2023-04-10T11:15:56;2.35;;;2.05;;
62709;SDS011;48770;51.624;5.886;2023-04-10T11:21:16;2.45;;;1.90;;
62709;SDS011;48770;51.624;5.886;2023-04-10T11:28:59;4.60;;;1.88;;
62709;SDS011;48770;51.624;5.886;2023-04-10T11:31:45;2.70;;;2.15;;
62709;SDS011;48770;51.624;5.886;2023-04-10T11:34:18;2.92;;;1.95;;
62709;SDS011;48770;51.624;5.886;2023-04-10T11:36:44;3.58;;;2.15;;
62709;SDS011;48770;51.624;5.886;2023-04-10T11:39:10;3.08;;;2.10;;
62709;SDS011;48770;51.624;5.886;2023-04-10T11:41:43;5.20;;;2.17;;
62709;SDS011;48770;51.624;5.886;2023-04-10T11:44:14;2.88;;;1.90;;
62709;SDS011;48770;51.624;5.886;2023-04-10T11:46:41;2.03;;;1.80;;
62709;SDS011;48770;51.624;5.886;2023-04-10T11:49:11;4.82;;;1.83;;
62709;SDS011;48770;51.624;5.886;2023-04-10T11:51:37;3.20;;;2.17;;
62709;SDS011;48770;51.624;5.886;2023-04-10T11:54:07;2.80;;;2.00;;
62709;SDS011;48770;51.624;5.886;2023-04-10T11:56:34;5.20;;;2.20;;
62709;SDS011;48770;51.624;5.886;2023-04-10T11:59:00;2.45;;;2.10;;
62709;SDS011;48770;51.624;5.886;2023-04-10T12:01:31;1.88;;;1.60;;
62709;SDS011;48770;51.624;5.886;2023-04-10T12:03:57;2.42;;;1.52;;
62709;SDS011;48770;51.624;5.886;2023-04-10T12:06:22;1.50;;;1.40;;
62709;SDS011;48770;51.624;5.886;2023-04-10T12:08:47;3.03;;;2.00;;
62709;SDS011;48770;51.624;5.886;2023-04-10T12:11:16;2.40;;;1.60;;
62709;SDS011;48770;51.624;5.886;2023-04-10T12:13:42;2.53;;;2.00;;
62709;SDS011;48770;51.624;5.886;2023-04-10T12:16:08;1.33;;;1.23;;
62709;SDS011;48770;51.624;5.886;2023-04-10T12:18:34;4.18;;;1.55;;
62709;SDS011;48770;51.624;5.886;2023-04-10T12:21:00;2.50;;;1.63;;
62709;SDS011;48770;51.624;5.886;2023-04-10T12:23:27;4.88;;;1.70;;
62709;SDS011;48770;51.624;5.886;2023-04-10T12:26:04;1.90;;;1.52;;
62709;SDS011;48770;51.624;5.886;2023-04-10T12:28:41;3.65;;;2.00;;
62709;SDS011;48770;51.624;5.886;2023-04-10T12:31:14;2.50;;;1.67;;
62709;SDS011;48770;51.624;5.886;2023-04-10T12:33:42;2.67;;;1.70;;
62709;SDS011;48770;51.624;5.886;2023-04-10T12:36:18;1.67;;;1.58;;
62709;SDS011;48770;51.624;5.886;2023-04-10T12:38:58;2.92;;;1.70;;
62709;SDS011;48770;51.624;5.886;2023-04-10T12:41:25;1.85;;;1.60;;
62709;SDS011;48770;51.624;5.886;2023-04-10T12:43:52;2.85;;;1.48;;
62709;SDS011;48770;51.624;5.886;2023-04-10T12:46:30;2.45;;;1.67;;
62709;SDS011;48770;51.624;5.886;2023-04-10T12:48:56;2.33;;;1.50;;
62709;SDS011;48770;51.624;5.886;2023-04-10T12:51:49;1.58;;;1.48;;
62709;SDS011;48770;51.624;5.886;2023-04-10T12:54:28;2.90;;;1.48;;
62709;SDS011;48770;51.624;5.886;2023-04-10T12:56:58;2.20;;;1.50;;
62709;SDS011;48770;51.624;5.886;2023-04-10T12:59:24;1.75;;;1.35;;
62709;SDS011;48770;51.624;5.886;2023-04-10T13:01:50;1.50;;;1.30;;
62709;SDS011;48770;51.624;5.886;2023-04-10T13:04:16;2.35;;;1.50;;
62709;SDS011;48770;51.624;5.886;2023-04-10T13:06:45;2.05;;;1.60;;
62709;SDS011;48770;51.624;5.886;2023-04-10T13:09:12;1.60;;;1.50;;
62709;SDS011;48770;51.624;5.886;2023-04-10T13:11:39;2.08;;;1.40;;
62709;SDS011;48770;51.624;5.886;2023-04-10T13:14:05;1.70;;;1.60;;
62709;SDS011;48770;51.624;5.886;2023-04-10T13:16:30;2.03;;;1.30;;
62709;SDS011;48770;51.624;5.886;2023-04-10T13:18:56;1.70;;;1.60;;
62709;SDS011;48770;51.624;5.886;2023-04-10T13:21:21;1.53;;;1.37;;
62709;SDS011;48770;51.624;5.886;2023-04-10T13:23:50;2.50;;;1.70;;
62709;SDS011;48770;51.624;5.886;2023-04-10T13:26:15;1.50;;;1.38;;
62709;SDS011;48770;51.624;5.886;2023-04-10T13:28:41;1.50;;;1.30;;
62709;SDS011;48770;51.624;5.886;2023-04-10T13:31:06;2.45;;;1.60;;
62709;SDS011;48770;51.624;5.886;2023-04-10T13:33:31;2.97;;;1.52;;
62709;SDS011;48770;51.624;5.886;2023-04-10T13:35:57;2.42;;;1.55;;
62709;SDS011;48770;51.624;5.886;2023-04-10T13:38:22;1.48;;;1.38;;
62709;SDS011;48770;51.624;5.886;2023-04-10T13:40:47;1.60;;;1.50;;
62709;SDS011;48770;51.624;5.886;2023-04-10T13:43:13;1.52;;;1.20;;
62709;SDS011;48770;51.624;5.886;2023-04-10T13:45:38;1.40;;;1.30;;
62709;SDS011;48770;51.624;5.886;2023-04-10T13:48:03;1.40;;;1.30;;
62709;SDS011;48770;51.624;5.886;2023-04-10T13:50:31;2.20;;;1.52;;
62709;SDS011;48770;51.624;5.886;2023-04-10T13:52:56;2.38;;;1.52;;
62709;SDS011;48770;51.624;5.886;2023-04-10T13:55:21;1.27;;;1.10;;
62709;SDS011;48770;51.624;5.886;2023-04-10T13:57:47;1.85;;;1.33;;
62709;SDS011;48770;51.624;5.886;2023-04-10T14:00:12;1.73;;;1.33;;
62709;SDS011;48770;51.624;5.886;2023-04-10T14:02:38;1.42;;;1.30;;
62709;SDS011;48770;51.624;5.886;2023-04-10T14:05:03;2.08;;;1.23;;
62709;SDS011;48770;51.624;5.886;2023-04-10T14:07:29;1.60;;;1.50;;
62709;SDS011;48770;51.624;5.886;2023-04-10T14:09:57;5.75;;;1.58;;
62709;SDS011;48770;51.624;5.886;2023-04-10T14:12:22;4.38;;;1.52;;
62709;SDS011;48770;51.624;5.886;2023-04-10T14:14:47;1.40;;;1.20;;
62709;SDS011;48770;51.624;5.886;2023-04-10T14:17:13;1.40;;;1.30;;
62709;SDS011;48770;51.624;5.886;2023-04-10T14:19:38;1.40;;;1.20;;
62709;SDS011;48770;51.624;5.886;2023-04-10T14:22:03;1.50;;;1.30;;
62709;SDS011;48770;51.624;5.886;2023-04-10T14:24:29;1.48;;;1.20;;
62709;SDS011;48770;51.624;5.886;2023-04-10T14:26:54;1.50;;;1.40;;
62709;SDS011;48770;51.624;5.886;2023-04-10T14:29:22;1.70;;;1.25;;
62709;SDS011;48770;51.624;5.886;2023-04-10T14:31:48;2.65;;;1.50;;
62709;SDS011;48770;51.624;5.886;2023-04-10T14:34:15;1.52;;;1.30;;
62709;SDS011;48770;51.624;5.886;2023-04-10T14:36:41;1.65;;;1.10;;
62709;SDS011;48770;51.624;5.886;2023-04-10T14:39:06;2.80;;;1.13;;
62709;SDS011;48770;51.624;5.886;2023-04-10T14:41:31;3.80;;;1.33;;
62709;SDS011;48770;51.624;5.886;2023-04-10T14:43:57;1.37;;;1.27;;
62709;SDS011;48770;51.624;5.886;2023-04-10T14:46:22;1.95;;;1.40;;
62709;SDS011;48770;51.624;5.886;2023-04-10T14:48:49;2.00;;;1.17;;
62709;SDS011;48770;51.624;5.886;2023-04-10T14:51:14;1.30;;;1.20;;
62709;SDS011;48770;51.624;5.886;2023-04-10T14:53:40;1.20;;;1.10;;
62709;SDS011;48770;51.624;5.886;2023-04-10T14:56:09;1.30;;;1.15;;
62709;SDS011;48770;51.624;5.886;2023-04-10T14:58:36;2.70;;;1.30;;
62709;SDS011;48770;51.624;5.886;2023-04-10T15:01:01;2.30;;;1.25;;
62709;SDS011;48770;51.624;5.886;2023-04-10T15:03:26;1.30;;;1.20;;
62709;SDS011;48770;51.624;5.886;2023-04-10T15:06:01;1.42;;;1.30;;
62709;SDS011;48770;51.624;5.886;2023-04-10T15:08:26;1.13;;;1.02;;
62709;SDS011;48770;51.624;5.886;2023-04-10T15:10:51;2.13;;;1.10;;
62709;SDS011;48770;51.624;5.886;2023-04-10T15:13:20;1.20;;;1.10;;
62709;SDS011;48770;51.624;5.886;2023-04-10T15:15:46;1.20;;;1.10;;
62709;SDS011;48770;51.624;5.886;2023-04-10T15:18:13;1.38;;;1.20;;